sensor_id;sensor_type;location;lat;lon;timestamp;P1;durP1;ratioP1;P2;durP2;ratioP2
41925;SDS011;27615;51.826;5.692;2022-11-15T00:01:42;53.95;;;26.88;;
41925;SDS011;27615;51.826;5.692;2022-11-15T00:04:07;48.45;;;26.20;;
41925;SDS011;27615;51.826;5.692;2022-11-15T00:06:35;51.08;;;26.80;;
41925;SDS011;27615;51.826;5.692;2022-11-15T00:09:00;50.75;;;27.17;;
41925;SDS011;27615;51.826;5.692;2022-11-15T00:11:27;47.80;;;27.75;;
41925;SDS011;27615;51.826;5.692;2022-11-15T00:13:56;52.60;;;25.95;;
41925;SDS011;27615;51.826;5.692;2022-11-15T00:16:22;46.97;;;26.27;;
41925;SDS011;27615;51.826;5.692;2022-11-15T00:18:48;54.88;;;26.88;;
41925;SDS011;27615;51.826;5.692;2022-11-15T00:21:14;48.17;;;25.55;;
41925;SDS011;27615;51.826;5.692;2022-11-15T00:23:40;44.65;;;25.90;;
41925;SDS011;27615;51.826;5.692;2022-11-15T00:26:06;44.50;;;26.33;;
41925;SDS011;27615;51.826;5.692;2022-11-15T00:28:35;43.92;;;26.98;;
41925;SDS011;27615;51.826;5.692;2022-11-15T00:31:02;41.85;;;23.80;;
41925;SDS011;27615;51.826;5.692;2022-11-15T00:33:28;44.35;;;26.05;;
41925;SDS011;27615;51.826;5.692;2022-11-15T00:35:59;44.38;;;25.75;;
41925;SDS011;27615;51.826;5.692;2022-11-15T00:38:29;49.35;;;27.40;;
41925;SDS011;27615;51.826;5.692;2022-11-15T00:43:21;43.22;;;25.45;;
41925;SDS011;27615;51.826;5.692;2022-11-15T00:45:47;51.38;;;26.88;;
41925;SDS011;27615;51.826;5.692;2022-11-15T00:48:12;46.08;;;26.70;;
41925;SDS011;27615;51.826;5.692;2022-11-15T00:50:37;42.05;;;25.15;;
41925;SDS011;27615;51.826;5.692;2022-11-15T00:53:03;41.80;;;26.27;;
41925;SDS011;27615;51.826;5.692;2022-11-15T00:55:28;45.10;;;27.30;;
41925;SDS011;27615;51.826;5.692;2022-11-15T00:57:54;48.22;;;27.98;;
41925;SDS011;27615;51.826;5.692;2022-11-15T01:00:19;45.47;;;27.50;;
41925;SDS011;27615;51.826;5.692;2022-11-15T01:02:45;44.15;;;27.73;;
41925;SDS011;27615;51.826;5.692;2022-11-15T01:05:10;50.30;;;28.38;;
41925;SDS011;27615;51.826;5.692;2022-11-15T01:07:36;44.40;;;27.67;;
41925;SDS011;27615;51.826;5.692;2022-11-15T01:10:02;46.95;;;28.15;;
41925;SDS011;27615;51.826;5.692;2022-11-15T01:12:28;47.35;;;30.42;;
41925;SDS011;27615;51.826;5.692;2022-11-15T01:14:54;42.65;;;28.55;;
41925;SDS011;27615;51.826;5.692;2022-11-15T01:17:19;47.33;;;29.02;;
41925;SDS011;27615;51.826;5.692;2022-11-15T01:19:45;39.65;;;26.20;;
41925;SDS011;27615;51.826;5.692;2022-11-15T01:22:10;42.83;;;26.45;;
41925;SDS011;27615;51.826;5.692;2022-11-15T01:24:36;45.70;;;26.92;;
41925;SDS011;27615;51.826;5.692;2022-11-15T01:27:02;44.78;;;26.80;;
41925;SDS011;27615;51.826;5.692;2022-11-15T01:29:27;43.38;;;27.35;;
41925;SDS011;27615;51.826;5.692;2022-11-15T01:31:53;43.55;;;26.25;;
41925;SDS011;27615;51.826;5.692;2022-11-15T01:34:18;43.58;;;27.35;;
41925;SDS011;27615;51.826;5.692;2022-11-15T01:36:44;46.85;;;27.42;;
41925;SDS011;27615;51.826;5.692;2022-11-15T01:39:10;39.80;;;26.80;;
41925;SDS011;27615;51.826;5.692;2022-11-15T01:41:35;37.85;;;25.85;;
41925;SDS011;27615;51.826;5.692;2022-11-15T01:50:21;41.90;;;25.83;;
41925;SDS011;27615;51.826;5.692;2022-11-15T01:55:18;40.90;;;25.80;;
41925;SDS011;27615;51.826;5.692;2022-11-15T01:57:50;39.40;;;24.70;;
41925;SDS011;27615;51.826;5.692;2022-11-15T02:00:18;35.03;;;25.50;;
41925;SDS011;27615;51.826;5.692;2022-11-15T02:02:44;38.58;;;26.50;;
41925;SDS011;27615;51.826;5.692;2022-11-15T02:05:10;39.83;;;26.60;;
41925;SDS011;27615;51.826;5.692;2022-11-15T02:07:36;36.90;;;26.20;;
41925;SDS011;27615;51.826;5.692;2022-11-15T02:10:04;39.38;;;25.25;;
41925;SDS011;27615;51.826;5.692;2022-11-15T02:12:36;37.13;;;26.27;;
41925;SDS011;27615;51.826;5.692;2022-11-15T02:15:02;34.25;;;24.90;;
41925;SDS011;27615;51.826;5.692;2022-11-15T02:25:37;38.30;;;25.73;;
41925;SDS011;27615;51.826;5.692;2022-11-15T02:31:07;36.55;;;25.92;;
41925;SDS011;27615;51.826;5.692;2022-11-15T02:34:20;34.38;;;26.00;;
41925;SDS011;27615;51.826;5.692;2022-11-15T02:36:41;32.72;;;22.98;;
41925;SDS011;27615;51.826;5.692;2022-11-15T02:39:18;36.03;;;25.30;;
41925;SDS011;27615;51.826;5.692;2022-11-15T02:41:54;33.03;;;24.60;;
41925;SDS011;27615;51.826;5.692;2022-11-15T02:44:46;42.58;;;26.90;;
41925;SDS011;27615;51.826;5.692;2022-11-15T02:47:12;35.65;;;25.77;;
41925;SDS011;27615;51.826;5.692;2022-11-15T02:49:48;34.10;;;25.15;;
41925;SDS011;27615;51.826;5.692;2022-11-15T02:52:23;35.80;;;25.58;;
41925;SDS011;27615;51.826;5.692;2022-11-15T02:54:55;37.90;;;26.38;;
41925;SDS011;27615;51.826;5.692;2022-11-15T03:00:10;33.83;;;24.48;;
41925;SDS011;27615;51.826;5.692;2022-11-15T03:11:10;36.65;;;26.50;;
41925;SDS011;27615;51.826;5.692;2022-11-15T03:16:11;36.95;;;26.20;;
41925;SDS011;27615;51.826;5.692;2022-11-15T03:18:40;38.28;;;25.55;;
41925;SDS011;27615;51.826;5.692;2022-11-15T03:21:09;34.80;;;25.65;;
41925;SDS011;27615;51.826;5.692;2022-11-15T03:23:39;38.85;;;25.17;;
41925;SDS011;27615;51.826;5.692;2022-11-15T03:26:07;36.78;;;25.98;;
41925;SDS011;27615;51.826;5.692;2022-11-15T03:28:42;37.20;;;26.35;;
41925;SDS011;27615;51.826;5.692;2022-11-15T03:31:20;31.38;;;24.80;;
41925;SDS011;27615;51.826;5.692;2022-11-15T03:34:08;36.33;;;25.52;;
41925;SDS011;27615;51.826;5.692;2022-11-15T03:36:40;34.38;;;25.90;;
41925;SDS011;27615;51.826;5.692;2022-11-15T03:39:06;31.30;;;23.55;;
41925;SDS011;27615;51.826;5.692;2022-11-15T03:41:39;33.83;;;25.70;;
41925;SDS011;27615;51.826;5.692;2022-11-15T03:44:14;35.05;;;24.85;;
41925;SDS011;27615;51.826;5.692;2022-11-15T03:47:17;31.55;;;24.25;;
41925;SDS011;27615;51.826;5.692;2022-11-15T03:49:52;34.35;;;25.50;;
41925;SDS011;27615;51.826;5.692;2022-11-15T03:52:21;32.72;;;23.88;;
41925;SDS011;27615;51.826;5.692;2022-11-15T03:54:52;32.92;;;22.92;;
41925;SDS011;27615;51.826;5.692;2022-11-15T03:57:19;32.70;;;24.13;;
41925;SDS011;27615;51.826;5.692;2022-11-15T03:59:45;33.83;;;24.42;;
41925;SDS011;27615;51.826;5.692;2022-11-15T04:02:11;34.00;;;23.90;;
41925;SDS011;27615;51.826;5.692;2022-11-15T04:04:37;35.97;;;24.40;;
41925;SDS011;27615;51.826;5.692;2022-11-15T04:07:03;33.47;;;23.35;;
41925;SDS011;27615;51.826;5.692;2022-11-15T04:09:28;34.22;;;25.48;;
41925;SDS011;27615;51.826;5.692;2022-11-15T04:11:54;33.55;;;25.38;;
41925;SDS011;27615;51.826;5.692;2022-11-15T04:14:20;34.60;;;25.38;;
41925;SDS011;27615;51.826;5.692;2022-11-15T04:16:45;31.35;;;23.20;;
41925;SDS011;27615;51.826;5.692;2022-11-15T04:19:11;33.72;;;23.88;;
41925;SDS011;27615;51.826;5.692;2022-11-15T04:21:55;31.73;;;23.92;;
41925;SDS011;27615;51.826;5.692;2022-11-15T04:24:39;32.92;;;23.23;;
41925;SDS011;27615;51.826;5.692;2022-11-15T04:27:04;34.35;;;24.00;;
41925;SDS011;27615;51.826;5.692;2022-11-15T04:29:30;29.75;;;22.90;;
41925;SDS011;27615;51.826;5.692;2022-11-15T04:32:05;29.88;;;23.90;;
41925;SDS011;27615;51.826;5.692;2022-11-15T04:34:31;29.65;;;22.63;;
41925;SDS011;27615;51.826;5.692;2022-11-15T04:36:57;33.22;;;25.17;;
41925;SDS011;27615;51.826;5.692;2022-11-15T04:39:39;32.45;;;24.42;;
41925;SDS011;27615;51.826;5.692;2022-11-15T04:42:06;30.40;;;23.58;;
41925;SDS011;27615;51.826;5.692;2022-11-15T04:44:32;33.30;;;25.05;;
41925;SDS011;27615;51.826;5.692;2022-11-15T04:46:58;33.85;;;25.90;;
41925;SDS011;27615;51.826;5.692;2022-11-15T04:49:23;32.40;;;24.67;;
41925;SDS011;27615;51.826;5.692;2022-11-15T04:51:49;40.13;;;26.20;;
41925;SDS011;27615;51.826;5.692;2022-11-15T04:54:14;33.47;;;23.92;;
41925;SDS011;27615;51.826;5.692;2022-11-15T04:56:40;34.42;;;25.33;;
41925;SDS011;27615;51.826;5.692;2022-11-15T04:59:05;36.05;;;25.58;;
41925;SDS011;27615;51.826;5.692;2022-11-15T05:01:31;36.90;;;25.25;;
41925;SDS011;27615;51.826;5.692;2022-11-15T05:03:57;39.28;;;26.42;;
41925;SDS011;27615;51.826;5.692;2022-11-15T05:06:41;38.45;;;25.60;;
41925;SDS011;27615;51.826;5.692;2022-11-15T05:09:06;34.47;;;25.88;;
41925;SDS011;27615;51.826;5.692;2022-11-15T05:11:32;39.17;;;25.20;;
41925;SDS011;27615;51.826;5.692;2022-11-15T05:13:58;40.40;;;25.00;;
41925;SDS011;27615;51.826;5.692;2022-11-15T05:16:23;39.90;;;25.90;;
41925;SDS011;27615;51.826;5.692;2022-11-15T05:18:52;35.55;;;25.60;;
41925;SDS011;27615;51.826;5.692;2022-11-15T05:21:18;35.38;;;26.58;;
41925;SDS011;27615;51.826;5.692;2022-11-15T05:23:44;36.63;;;25.83;;
41925;SDS011;27615;51.826;5.692;2022-11-15T05:26:10;39.92;;;25.58;;
41925;SDS011;27615;51.826;5.692;2022-11-15T05:28:35;37.08;;;25.13;;
41925;SDS011;27615;51.826;5.692;2022-11-15T05:31:12;36.28;;;25.48;;
41925;SDS011;27615;51.826;5.692;2022-11-15T05:33:39;36.00;;;24.83;;
41925;SDS011;27615;51.826;5.692;2022-11-15T05:39:03;37.22;;;25.33;;
41925;SDS011;27615;51.826;5.692;2022-11-15T05:41:32;36.55;;;25.27;;
41925;SDS011;27615;51.826;5.692;2022-11-15T05:44:00;39.85;;;25.77;;
41925;SDS011;27615;51.826;5.692;2022-11-15T05:46:27;36.72;;;25.10;;
41925;SDS011;27615;51.826;5.692;2022-11-15T05:48:54;36.03;;;25.27;;
41925;SDS011;27615;51.826;5.692;2022-11-15T05:51:20;36.63;;;24.73;;
41925;SDS011;27615;51.826;5.692;2022-11-15T05:53:48;36.42;;;24.17;;
41925;SDS011;27615;51.826;5.692;2022-11-15T05:56:14;34.38;;;25.00;;
41925;SDS011;27615;51.826;5.692;2022-11-15T05:58:40;36.88;;;25.70;;
41925;SDS011;27615;51.826;5.692;2022-11-15T06:01:06;35.80;;;24.20;;
41925;SDS011;27615;51.826;5.692;2022-11-15T06:03:32;32.30;;;24.55;;
41925;SDS011;27615;51.826;5.692;2022-11-15T06:05:58;34.80;;;25.67;;
41925;SDS011;27615;51.826;5.692;2022-11-15T06:08:23;34.92;;;25.30;;
41925;SDS011;27615;51.826;5.692;2022-11-15T06:10:49;36.00;;;24.65;;
41925;SDS011;27615;51.826;5.692;2022-11-15T06:13:14;32.08;;;23.95;;
41925;SDS011;27615;51.826;5.692;2022-11-15T06:15:40;36.00;;;24.63;;
41925;SDS011;27615;51.826;5.692;2022-11-15T06:18:05;31.23;;;22.85;;
41925;SDS011;27615;51.826;5.692;2022-11-15T06:20:31;35.58;;;23.70;;
41925;SDS011;27615;51.826;5.692;2022-11-15T06:22:57;36.35;;;23.20;;
41925;SDS011;27615;51.826;5.692;2022-11-15T06:25:24;31.17;;;22.67;;
41925;SDS011;27615;51.826;5.692;2022-11-15T06:27:51;30.35;;;23.33;;
41925;SDS011;27615;51.826;5.692;2022-11-15T06:30:20;27.85;;;22.65;;
41925;SDS011;27615;51.826;5.692;2022-11-15T06:32:46;32.70;;;22.83;;
41925;SDS011;27615;51.826;5.692;2022-11-15T06:35:13;29.90;;;21.27;;
41925;SDS011;27615;51.826;5.692;2022-11-15T06:37:38;25.58;;;20.17;;
41925;SDS011;27615;51.826;5.692;2022-11-15T06:40:04;26.33;;;20.38;;
41925;SDS011;27615;51.826;5.692;2022-11-15T06:42:30;28.73;;;20.65;;
41925;SDS011;27615;51.826;5.692;2022-11-15T06:44:56;25.95;;;19.45;;
41925;SDS011;27615;51.826;5.692;2022-11-15T06:47:21;33.60;;;21.55;;
41925;SDS011;27615;51.826;5.692;2022-11-15T06:49:47;26.83;;;20.38;;
41925;SDS011;27615;51.826;5.692;2022-11-15T06:52:12;29.85;;;21.85;;
41925;SDS011;27615;51.826;5.692;2022-11-15T06:54:38;25.15;;;18.98;;
41925;SDS011;27615;51.826;5.692;2022-11-15T06:57:03;26.58;;;18.00;;
41925;SDS011;27615;51.826;5.692;2022-11-15T06:59:29;28.02;;;19.52;;
41925;SDS011;27615;51.826;5.692;2022-11-15T07:01:55;26.50;;;21.00;;
41925;SDS011;27615;51.826;5.692;2022-11-15T07:04:20;27.17;;;21.00;;
41925;SDS011;27615;51.826;5.692;2022-11-15T07:06:46;26.45;;;21.27;;
41925;SDS011;27615;51.826;5.692;2022-11-15T07:09:13;25.40;;;19.90;;
41925;SDS011;27615;51.826;5.692;2022-11-15T07:11:39;26.58;;;19.02;;
41925;SDS011;27615;51.826;5.692;2022-11-15T07:14:07;21.38;;;18.75;;
41925;SDS011;27615;51.826;5.692;2022-11-15T07:16:33;22.23;;;17.92;;
41925;SDS011;27615;51.826;5.692;2022-11-15T07:18:58;25.23;;;17.85;;
41925;SDS011;27615;51.826;5.692;2022-11-15T07:21:24;25.42;;;19.70;;
41925;SDS011;27615;51.826;5.692;2022-11-15T07:23:49;21.25;;;17.27;;
41925;SDS011;27615;51.826;5.692;2022-11-15T07:26:15;24.73;;;19.27;;
41925;SDS011;27615;51.826;5.692;2022-11-15T07:28:40;23.67;;;18.33;;
41925;SDS011;27615;51.826;5.692;2022-11-15T07:31:07;25.30;;;18.60;;
41925;SDS011;27615;51.826;5.692;2022-11-15T07:33:33;23.08;;;17.63;;
41925;SDS011;27615;51.826;5.692;2022-11-15T07:36:00;26.92;;;19.33;;
41925;SDS011;27615;51.826;5.692;2022-11-15T07:38:27;26.98;;;18.83;;
41925;SDS011;27615;51.826;5.692;2022-11-15T07:40:57;23.50;;;17.50;;
41925;SDS011;27615;51.826;5.692;2022-11-15T07:43:23;24.13;;;18.65;;
41925;SDS011;27615;51.826;5.692;2022-11-15T07:45:49;25.27;;;18.40;;
41925;SDS011;27615;51.826;5.692;2022-11-15T07:48:15;23.25;;;18.45;;
41925;SDS011;27615;51.826;5.692;2022-11-15T07:50:41;22.70;;;18.25;;
41925;SDS011;27615;51.826;5.692;2022-11-15T07:53:07;23.05;;;17.75;;
41925;SDS011;27615;51.826;5.692;2022-11-15T07:55:34;25.90;;;18.92;;
41925;SDS011;27615;51.826;5.692;2022-11-15T07:58:03;27.30;;;19.27;;
41925;SDS011;27615;51.826;5.692;2022-11-15T08:00:30;26.05;;;18.90;;
41925;SDS011;27615;51.826;5.692;2022-11-15T08:05:36;24.13;;;18.23;;
41925;SDS011;27615;51.826;5.692;2022-11-15T08:08:04;26.02;;;17.92;;
41925;SDS011;27615;51.826;5.692;2022-11-15T08:10:30;24.08;;;18.17;;
41925;SDS011;27615;51.826;5.692;2022-11-15T08:15:25;25.67;;;19.13;;
41925;SDS011;27615;51.826;5.692;2022-11-15T08:17:54;27.10;;;19.65;;
41925;SDS011;27615;51.826;5.692;2022-11-15T08:20:24;23.92;;;18.67;;
41925;SDS011;27615;51.826;5.692;2022-11-15T08:22:54;22.80;;;18.80;;
41925;SDS011;27615;51.826;5.692;2022-11-15T08:25:21;24.38;;;18.40;;
41925;SDS011;27615;51.826;5.692;2022-11-15T08:27:46;25.75;;;19.17;;
41925;SDS011;27615;51.826;5.692;2022-11-15T08:30:12;22.42;;;16.90;;
41925;SDS011;27615;51.826;5.692;2022-11-15T08:32:38;26.45;;;18.08;;
41925;SDS011;27615;51.826;5.692;2022-11-15T08:35:04;29.13;;;18.50;;
41925;SDS011;27615;51.826;5.692;2022-11-15T08:37:30;27.45;;;19.10;;
41925;SDS011;27615;51.826;5.692;2022-11-15T08:39:55;23.52;;;18.42;;
41925;SDS011;27615;51.826;5.692;2022-11-15T08:42:21;23.73;;;18.55;;
41925;SDS011;27615;51.826;5.692;2022-11-15T08:44:46;23.13;;;18.20;;
41925;SDS011;27615;51.826;5.692;2022-11-15T08:47:12;22.88;;;17.65;;
41925;SDS011;27615;51.826;5.692;2022-11-15T08:49:38;20.63;;;17.30;;
41925;SDS011;27615;51.826;5.692;2022-11-15T12:32:01;3.78;;;0.80;;
41925;SDS011;27615;51.826;5.692;2022-11-15T12:34:29;5.13;;;0.85;;
41925;SDS011;27615;51.826;5.692;2022-11-15T12:40:18;4.50;;;0.98;;
41925;SDS011;27615;51.826;5.692;2022-11-15T12:45:41;3.97;;;0.82;;
41925;SDS011;27615;51.826;5.692;2022-11-15T13:06:44;5.10;;;0.90;;
41925;SDS011;27615;51.826;5.692;2022-11-15T13:12:03;3.72;;;1.52;;
41925;SDS011;27615;51.826;5.692;2022-11-15T13:17:02;4.00;;;1.38;;
41925;SDS011;27615;51.826;5.692;2022-11-15T13:19:49;4.18;;;0.93;;
41925;SDS011;27615;51.826;5.692;2022-11-15T13:31:01;1.83;;;0.68;;
41925;SDS011;27615;51.826;5.692;2022-11-15T13:33:43;3.33;;;0.95;;
41925;SDS011;27615;51.826;5.692;2022-11-15T13:36:13;2.92;;;0.70;;
41925;SDS011;27615;51.826;5.692;2022-11-15T13:38:43;4.78;;;0.93;;
41925;SDS011;27615;51.826;5.692;2022-11-15T13:43:43;1.77;;;0.95;;
41925;SDS011;27615;51.826;5.692;2022-11-15T13:46:13;3.40;;;0.82;;
41925;SDS011;27615;51.826;5.692;2022-11-15T13:48:42;4.75;;;0.90;;
41925;SDS011;27615;51.826;5.692;2022-11-15T13:51:15;2.63;;;0.60;;
41925;SDS011;27615;51.826;5.692;2022-11-15T13:53:57;3.35;;;0.70;;
41925;SDS011;27615;51.826;5.692;2022-11-15T13:56:27;3.40;;;1.02;;
41925;SDS011;27615;51.826;5.692;2022-11-15T13:58:54;2.95;;;0.90;;
41925;SDS011;27615;51.826;5.692;2022-11-15T14:01:20;2.58;;;0.98;;
41925;SDS011;27615;51.826;5.692;2022-11-15T14:03:52;2.70;;;0.60;;
41925;SDS011;27615;51.826;5.692;2022-11-15T14:06:21;2.22;;;0.70;;
41925;SDS011;27615;51.826;5.692;2022-11-15T14:11:29;5.78;;;1.15;;
41925;SDS011;27615;51.826;5.692;2022-11-15T14:16:37;3.15;;;0.90;;
41925;SDS011;27615;51.826;5.692;2022-11-15T14:19:09;5.22;;;0.70;;
41925;SDS011;27615;51.826;5.692;2022-11-15T14:24:39;5.13;;;0.70;;
41925;SDS011;27615;51.826;5.692;2022-11-15T14:30:01;3.10;;;0.80;;
41925;SDS011;27615;51.826;5.692;2022-11-15T14:32:27;1.95;;;0.50;;
41925;SDS011;27615;51.826;5.692;2022-11-15T14:34:55;2.13;;;0.60;;
41925;SDS011;27615;51.826;5.692;2022-11-15T14:37:29;4.88;;;0.60;;
41925;SDS011;27615;51.826;5.692;2022-11-15T14:39:58;7.60;;;0.80;;
41925;SDS011;27615;51.826;5.692;2022-11-15T14:42:24;2.58;;;0.70;;
41925;SDS011;27615;51.826;5.692;2022-11-15T14:44:50;2.60;;;0.47;;
41925;SDS011;27615;51.826;5.692;2022-11-15T14:47:16;3.70;;;0.73;;
41925;SDS011;27615;51.826;5.692;2022-11-15T14:49:42;2.90;;;0.70;;
41925;SDS011;27615;51.826;5.692;2022-11-15T14:52:25;5.72;;;1.05;;
41925;SDS011;27615;51.826;5.692;2022-11-15T14:54:55;3.05;;;0.65;;
41925;SDS011;27615;51.826;5.692;2022-11-15T14:57:21;3.22;;;0.60;;
41925;SDS011;27615;51.826;5.692;2022-11-15T14:59:47;2.13;;;0.50;;
41925;SDS011;27615;51.826;5.692;2022-11-15T15:02:17;2.13;;;0.60;;
41925;SDS011;27615;51.826;5.692;2022-11-15T15:04:44;2.22;;;0.40;;
41925;SDS011;27615;51.826;5.692;2022-11-15T15:07:10;3.55;;;0.57;;
41925;SDS011;27615;51.826;5.692;2022-11-15T15:09:35;3.50;;;0.80;;
41925;SDS011;27615;51.826;5.692;2022-11-15T15:12:01;2.33;;;0.45;;
41925;SDS011;27615;51.826;5.692;2022-11-15T15:14:26;3.97;;;0.98;;
41925;SDS011;27615;51.826;5.692;2022-11-15T15:16:52;1.63;;;0.40;;
41925;SDS011;27615;51.826;5.692;2022-11-15T15:19:17;2.08;;;0.50;;
41925;SDS011;27615;51.826;5.692;2022-11-15T15:21:43;4.15;;;0.57;;
41925;SDS011;27615;51.826;5.692;2022-11-15T15:24:15;3.42;;;0.60;;
41925;SDS011;27615;51.826;5.692;2022-11-15T15:26:40;3.55;;;0.70;;
41925;SDS011;27615;51.826;5.692;2022-11-15T15:29:06;4.53;;;0.80;;
41925;SDS011;27615;51.826;5.692;2022-11-15T15:31:33;2.58;;;0.75;;
41925;SDS011;27615;51.826;5.692;2022-11-15T15:33:59;2.67;;;0.50;;
41925;SDS011;27615;51.826;5.692;2022-11-15T15:36:24;3.05;;;0.65;;
41925;SDS011;27615;51.826;5.692;2022-11-15T15:38:50;3.92;;;0.68;;
41925;SDS011;27615;51.826;5.692;2022-11-15T15:41:16;5.47;;;0.70;;
41925;SDS011;27615;51.826;5.692;2022-11-15T15:43:42;3.03;;;0.70;;
41925;SDS011;27615;51.826;5.692;2022-11-15T15:46:09;2.97;;;0.80;;
41925;SDS011;27615;51.826;5.692;2022-11-15T15:48:36;1.65;;;0.63;;
41925;SDS011;27615;51.826;5.692;2022-11-15T15:51:03;2.45;;;0.60;;
41925;SDS011;27615;51.826;5.692;2022-11-15T15:53:28;3.72;;;0.70;;
41925;SDS011;27615;51.826;5.692;2022-11-15T15:55:55;5.55;;;1.02;;
41925;SDS011;27615;51.826;5.692;2022-11-15T15:58:20;3.58;;;0.70;;
41925;SDS011;27615;51.826;5.692;2022-11-15T16:00:46;2.53;;;0.60;;
41925;SDS011;27615;51.826;5.692;2022-11-15T16:03:11;3.65;;;0.80;;
41925;SDS011;27615;51.826;5.692;2022-11-15T16:05:37;3.58;;;0.80;;
41925;SDS011;27615;51.826;5.692;2022-11-15T16:08:03;4.82;;;1.25;;
41925;SDS011;27615;51.826;5.692;2022-11-15T16:10:30;4.05;;;0.90;;
41925;SDS011;27615;51.826;5.692;2022-11-15T16:12:58;3.45;;;1.08;;
41925;SDS011;27615;51.826;5.692;2022-11-15T16:15:25;3.63;;;1.45;;
41925;SDS011;27615;51.826;5.692;2022-11-15T16:20:27;3.65;;;1.00;;
41925;SDS011;27615;51.826;5.692;2022-11-15T16:22:54;2.05;;;0.63;;
41925;SDS011;27615;51.826;5.692;2022-11-15T16:25:19;3.63;;;1.02;;
41925;SDS011;27615;51.826;5.692;2022-11-15T16:27:45;3.97;;;1.02;;
41925;SDS011;27615;51.826;5.692;2022-11-15T16:30:15;4.90;;;1.15;;
41925;SDS011;27615;51.826;5.692;2022-11-15T16:32:42;3.25;;;1.10;;
41925;SDS011;27615;51.826;5.692;2022-11-15T16:35:14;5.78;;;1.00;;
41925;SDS011;27615;51.826;5.692;2022-11-15T16:37:41;4.28;;;1.00;;
41925;SDS011;27615;51.826;5.692;2022-11-15T16:40:30;4.25;;;1.15;;
41925;SDS011;27615;51.826;5.692;2022-11-15T16:42:56;4.00;;;1.23;;
41925;SDS011;27615;51.826;5.692;2022-11-15T16:45:23;3.53;;;1.08;;
41925;SDS011;27615;51.826;5.692;2022-11-15T16:47:49;3.00;;;1.02;;
41925;SDS011;27615;51.826;5.692;2022-11-15T16:50:22;3.35;;;1.20;;
41925;SDS011;27615;51.826;5.692;2022-11-15T16:52:53;6.47;;;1.33;;
41925;SDS011;27615;51.826;5.692;2022-11-15T16:55:20;3.20;;;1.13;;
41925;SDS011;27615;51.826;5.692;2022-11-15T16:57:48;3.50;;;1.35;;
41925;SDS011;27615;51.826;5.692;2022-11-15T17:00:13;2.85;;;1.20;;
41925;SDS011;27615;51.826;5.692;2022-11-15T17:02:44;3.60;;;1.10;;
41925;SDS011;27615;51.826;5.692;2022-11-15T17:05:13;3.30;;;1.30;;
41925;SDS011;27615;51.826;5.692;2022-11-15T17:07:40;3.85;;;1.85;;
41925;SDS011;27615;51.826;5.692;2022-11-15T17:10:08;4.75;;;1.42;;
41925;SDS011;27615;51.826;5.692;2022-11-15T17:12:35;4.78;;;1.58;;
41925;SDS011;27615;51.826;5.692;2022-11-15T17:15:01;4.75;;;1.20;;
41925;SDS011;27615;51.826;5.692;2022-11-15T17:17:28;4.82;;;2.03;;
41925;SDS011;27615;51.826;5.692;2022-11-15T17:19:54;8.13;;;1.85;;
41925;SDS011;27615;51.826;5.692;2022-11-15T17:22:20;3.75;;;1.75;;
41925;SDS011;27615;51.826;5.692;2022-11-15T17:24:45;7.25;;;1.83;;
41925;SDS011;27615;51.826;5.692;2022-11-15T17:27:11;4.63;;;2.25;;
41925;SDS011;27615;51.826;5.692;2022-11-15T17:29:37;4.55;;;2.13;;
41925;SDS011;27615;51.826;5.692;2022-11-15T17:32:02;7.47;;;2.17;;
41925;SDS011;27615;51.826;5.692;2022-11-15T17:34:28;5.05;;;2.13;;
41925;SDS011;27615;51.826;5.692;2022-11-15T17:36:53;5.75;;;2.38;;
41925;SDS011;27615;51.826;5.692;2022-11-15T17:39:19;5.90;;;2.40;;
41925;SDS011;27615;51.826;5.692;2022-11-15T17:41:45;6.60;;;2.47;;
41925;SDS011;27615;51.826;5.692;2022-11-15T17:44:11;5.40;;;2.42;;
41925;SDS011;27615;51.826;5.692;2022-11-15T17:46:36;6.43;;;2.70;;
41925;SDS011;27615;51.826;5.692;2022-11-15T17:49:02;6.43;;;2.92;;
41925;SDS011;27615;51.826;5.692;2022-11-15T17:51:27;6.50;;;2.78;;
41925;SDS011;27615;51.826;5.692;2022-11-15T17:53:53;8.82;;;3.28;;
41925;SDS011;27615;51.826;5.692;2022-11-15T17:56:20;6.03;;;2.70;;
41925;SDS011;27615;51.826;5.692;2022-11-15T17:58:48;4.68;;;3.30;;
41925;SDS011;27615;51.826;5.692;2022-11-15T18:01:19;4.88;;;3.25;;
41925;SDS011;27615;51.826;5.692;2022-11-15T18:03:47;5.30;;;3.50;;
41925;SDS011;27615;51.826;5.692;2022-11-15T18:06:13;6.13;;;3.67;;
41925;SDS011;27615;51.826;5.692;2022-11-15T18:08:41;6.38;;;3.15;;
41925;SDS011;27615;51.826;5.692;2022-11-15T18:11:13;9.93;;;3.60;;
41925;SDS011;27615;51.826;5.692;2022-11-15T18:13:41;5.55;;;3.78;;
41925;SDS011;27615;51.826;5.692;2022-11-15T18:16:12;5.80;;;3.60;;
41925;SDS011;27615;51.826;5.692;2022-11-15T18:23:32;6.05;;;3.90;;
41925;SDS011;27615;51.826;5.692;2022-11-15T18:25:58;7.97;;;4.50;;
41925;SDS011;27615;51.826;5.692;2022-11-15T18:28:28;6.43;;;4.05;;
41925;SDS011;27615;51.826;5.692;2022-11-15T18:31:02;11.00;;;4.20;;
41925;SDS011;27615;51.826;5.692;2022-11-15T18:33:36;4.50;;;3.60;;
41925;SDS011;27615;51.826;5.692;2022-11-15T18:36:05;6.32;;;3.92;;
41925;SDS011;27615;51.826;5.692;2022-11-15T18:38:33;8.27;;;4.93;;
41925;SDS011;27615;51.826;5.692;2022-11-15T18:41:05;6.45;;;4.20;;
41925;SDS011;27615;51.826;5.692;2022-11-15T18:43:32;7.97;;;4.53;;
41925;SDS011;27615;51.826;5.692;2022-11-15T18:46:02;6.78;;;4.78;;
41925;SDS011;27615;51.826;5.692;2022-11-15T18:48:29;8.68;;;5.07;;
41925;SDS011;27615;51.826;5.692;2022-11-15T18:51:03;8.73;;;5.10;;
41925;SDS011;27615;51.826;5.692;2022-11-15T18:56:03;9.60;;;5.22;;
41925;SDS011;27615;51.826;5.692;2022-11-15T18:58:31;8.15;;;5.40;;
41925;SDS011;27615;51.826;5.692;2022-11-15T19:03:35;8.35;;;5.88;;
41925;SDS011;27615;51.826;5.692;2022-11-15T19:08:33;6.75;;;5.43;;
41925;SDS011;27615;51.826;5.692;2022-11-15T19:11:03;8.75;;;6.10;;
41925;SDS011;27615;51.826;5.692;2022-11-15T19:13:31;7.68;;;5.25;;
41925;SDS011;27615;51.826;5.692;2022-11-15T19:16:00;6.90;;;5.65;;
41925;SDS011;27615;51.826;5.692;2022-11-15T19:18:27;7.40;;;4.70;;
41925;SDS011;27615;51.826;5.692;2022-11-15T19:20:53;7.18;;;5.40;;
41925;SDS011;27615;51.826;5.692;2022-11-15T19:23:20;9.73;;;6.32;;
41925;SDS011;27615;51.826;5.692;2022-11-15T19:25:55;9.63;;;6.00;;
41925;SDS011;27615;51.826;5.692;2022-11-15T19:28:23;9.15;;;6.35;;
41925;SDS011;27615;51.826;5.692;2022-11-15T19:30:51;7.73;;;5.77;;
41925;SDS011;27615;51.826;5.692;2022-11-15T19:33:18;7.38;;;5.57;;
41925;SDS011;27615;51.826;5.692;2022-11-15T19:35:45;9.82;;;5.72;;
41925;SDS011;27615;51.826;5.692;2022-11-15T19:38:11;10.10;;;6.20;;
41925;SDS011;27615;51.826;5.692;2022-11-15T19:40:36;8.43;;;5.63;;
41925;SDS011;27615;51.826;5.692;2022-11-15T19:43:02;9.20;;;6.22;;
41925;SDS011;27615;51.826;5.692;2022-11-15T19:45:28;8.82;;;6.25;;
41925;SDS011;27615;51.826;5.692;2022-11-15T19:47:53;7.07;;;5.70;;
41925;SDS011;27615;51.826;5.692;2022-11-15T19:50:19;7.80;;;5.95;;
41925;SDS011;27615;51.826;5.692;2022-11-15T19:52:44;8.30;;;6.35;;
41925;SDS011;27615;51.826;5.692;2022-11-15T19:55:10;8.38;;;6.47;;
41925;SDS011;27615;51.826;5.692;2022-11-15T19:57:35;8.02;;;6.13;;
41925;SDS011;27615;51.826;5.692;2022-11-15T20:00:01;9.48;;;6.57;;
41925;SDS011;27615;51.826;5.692;2022-11-15T20:02:29;7.47;;;6.13;;
41925;SDS011;27615;51.826;5.692;2022-11-15T20:04:54;7.90;;;5.80;;
41925;SDS011;27615;51.826;5.692;2022-11-15T20:07:20;9.13;;;6.05;;
41925;SDS011;27615;51.826;5.692;2022-11-15T20:09:45;8.40;;;6.68;;